createdAt,value
2022-07-27T00:04:19.925Z,101882.72
2022-07-27T00:09:25.148Z,101874.88
2022-07-27T00:14:30.318Z,101881.28
2022-07-27T00:19:32.301Z,101889.00
2022-07-27T00:24:34.012Z,101873.75
2022-07-27T00:29:35.809Z,101890.25
2022-07-27T00:34:39.820Z,101882.03
2022-07-27T00:39:43.879Z,101882.22
2022-07-27T00:44:45.712Z,101881.25
2022-07-27T00:49:50.015Z,101889.69
2022-07-27T00:54:52.195Z,101885.81
2022-07-27T00:59:56.797Z,101880.31
2022-07-27T01:05:00.757Z,101883.00
2022-07-27T01:10:02.806Z,101882.84
2022-07-27T01:15:07.319Z,101887.03
2022-07-27T01:20:14.630Z,101879.44
2022-07-27T01:25:18.615Z,101883.31
2022-07-27T01:30:27.671Z,101885.53
2022-07-27T01:35:31.759Z,101875.59
2022-07-27T01:40:39.900Z,101882.63
2022-07-27T01:45:41.737Z,101887.69
2022-07-27T01:50:43.678Z,101883.44
2022-07-27T01:55:51.859Z,101882.25
2022-07-27T02:00:53.739Z,101885.16
2022-07-27T02:05:58.471Z,101879.81
2022-07-27T02:11:18.995Z,101881.34
2022-07-27T02:16:20.985Z,101869.78
2022-07-27T02:21:38.845Z,101865.47
2022-07-27T02:26:42.974Z,101863.31
2022-07-27T02:31:47.431Z,101855.25
2022-07-27T02:36:52.683Z,101866.66
2022-07-27T02:41:54.416Z,101856.97
2022-07-27T02:46:58.596Z,101862.13
2022-07-27T02:52:03.101Z,101868.53
2022-07-27T02:57:06.905Z,101868.47
2022-07-27T03:02:08.606Z,101860.41
2022-07-27T03:07:12.820Z,101859.38
2022-07-27T03:12:14.582Z,101867.25
2022-07-27T03:17:18.670Z,101861.38
2022-07-27T03:22:20.425Z,101866.72
2022-07-27T03:27:23.179Z,101868.88
2022-07-27T03:32:31.571Z,101864.16
2022-07-27T03:37:33.720Z,101874.41
2022-07-27T03:42:39.323Z,101876.09
2022-07-27T03:47:44.329Z,101884.16
2022-07-27T03:52:46.094Z,101886.22
2022-07-27T03:57:47.911Z,101888.56
2022-07-27T04:02:49.719Z,101887.41
2022-07-27T04:07:55.128Z,101877.19
2022-07-27T04:12:59.449Z,101889.31
2022-07-27T04:18:01.387Z,101878.06
2022-07-27T04:23:05.583Z,101886.28
2022-07-27T04:28:09.606Z,101881.28
2022-07-27T04:33:13.594Z,101877.09
2022-07-27T04:38:17.564Z,101886.31
2022-07-27T04:43:21.715Z,101885.97
2022-07-27T04:48:28.664Z,101884.97
2022-07-27T04:53:30.811Z,101890.31
2022-07-27T04:58:38.184Z,101904.72
2022-07-27T05:03:40.715Z,101895.16
2022-07-27T05:08:44.738Z,101908.94
2022-07-27T05:13:49.039Z,101907.75
2022-07-27T05:18:50.805Z,101912.94
2022-07-27T05:23:55.708Z,101920.47
2022-07-27T05:28:57.493Z,101922.13
2022-07-27T05:33:59.198Z,101926.78
2022-07-27T05:39:08.146Z,101934.63
2022-07-27T05:44:14.706Z,101940.25
2022-07-27T05:49:17.391Z,101936.16
2022-07-27T05:54:19.396Z,101943.47
2022-07-27T05:59:21.116Z,101943.19
2022-07-27T06:04:22.847Z,101945.97
2022-07-27T06:09:27.097Z,101947.84
2022-07-27T06:14:28.881Z,101950.59
2022-07-27T06:19:35.891Z,101948.25
2022-07-27T06:24:38.269Z,101941.91
2022-07-27T06:29:42.261Z,101949.09
2022-07-27T06:34:46.329Z,101959.88
2022-07-27T06:39:51.871Z,101964.97
2022-07-27T06:44:56.728Z,101975.03
2022-07-27T06:50:00.712Z,101972.06
2022-07-27T06:55:08.398Z,101971.69
2022-07-27T07:00:10.880Z,101973.25
2022-07-27T07:05:12.748Z,101983.38
2022-07-27T07:10:17.214Z,101971.19
2022-07-27T07:15:19.071Z,101974.19
2022-07-27T07:20:21.610Z,101977.16
2022-07-27T07:25:26.425Z,101974.22
2022-07-27T07:30:30.735Z,101975.03
2022-07-27T07:35:32.733Z,101983.16
2022-07-27T07:40:43.946Z,101981.31
2022-07-27T07:45:50.860Z,101992.88
2022-07-27T07:50:57.090Z,101983.47
2022-07-27T07:56:00.008Z,101983.56
2022-07-27T08:01:04.963Z,101988.03
2022-07-27T08:06:08.254Z,101991.72
2022-07-27T08:11:12.969Z,101999.06
2022-07-27T08:16:15.176Z,101995.81
2022-07-27T08:21:19.303Z,102003.00
2022-07-27T08:26:21.003Z,102010.75
2022-07-27T08:31:52.333Z,102011.34
2022-07-27T08:36:49.426Z,102026.59
2022-07-27T08:41:57.698Z,102027.00
2022-07-27T08:47:02.551Z,102022.19
2022-07-27T08:52:06.083Z,102013.66
2022-07-27T08:57:13.360Z,102012.25
2022-07-27T09:02:17.217Z,102016.84
2022-07-27T09:07:32.307Z,102024.97
2022-07-27T09:12:39.164Z,102024.97
2022-07-27T09:17:50.290Z,102020.13
2022-07-27T09:22:56.229Z,102028.88
2022-07-27T09:27:58.740Z,102020.38
2022-07-27T09:33:02.949Z,102019.31
2022-07-27T09:38:21.967Z,102045.41
2022-07-27T09:48:45.886Z,102048.97
2022-07-27T09:53:49.974Z,102047.47
2022-07-27T09:58:58.836Z,102041.88
2022-07-27T10:04:06.392Z,102043.88
2022-07-27T10:09:11.184Z,102038.00
2022-07-27T10:14:14.929Z,102041.19
2022-07-27T10:19:44.326Z,102035.50
2022-07-27T10:24:58.723Z,102038.88
2022-07-27T10:30:05.644Z,102044.13
2022-07-27T10:35:34.412Z,102034.47
2022-07-27T10:40:36.411Z,102040.94
2022-07-27T10:45:50.281Z,102046.13
2022-07-27T10:50:57.166Z,102043.88
2022-07-27T10:55:59.055Z,102040.00
2022-07-27T11:01:04.498Z,102042.53
2022-07-27T11:06:31.856Z,102049.47
2022-07-27T11:11:34.615Z,102046.84
2022-07-27T11:16:54.859Z,102054.97
2022-07-27T11:21:58.024Z,102052.75
2022-07-27T11:27:02.061Z,102050.34
2022-07-27T11:32:23.706Z,102057.03
2022-07-27T11:37:25.647Z,102054.97
2022-07-27T11:42:38.497Z,102053.84
2022-07-27T11:47:41.191Z,102045.41
2022-07-27T11:53:02.030Z,102057.31
2022-07-27T11:58:06.868Z,102067.81
2022-07-27T12:03:46.037Z,102067.38
2022-07-27T12:08:49.123Z,102091.06
2022-07-27T12:13:57.645Z,102091.13
2022-07-27T12:19:04.225Z,102104.75
2022-07-27T12:24:08.014Z,102102.34
2022-07-27T12:29:17.885Z,102087.31
2022-07-27T12:34:19.790Z,102093.97
2022-07-27T12:39:28.373Z,102091.69
2022-07-27T12:44:40.751Z,102092.09
2022-07-27T12:49:46.707Z,102090.91
2022-07-27T12:54:51.368Z,102077.34
2022-07-27T12:59:55.407Z,102080.47
2022-07-27T13:04:58.240Z,102079.16
2022-07-27T13:10:07.082Z,102086.13
2022-07-27T13:15:09.252Z,102088.09
2022-07-27T13:20:13.070Z,102082.25
2022-07-27T13:25:17.195Z,102085.63
2022-07-27T13:30:22.300Z,102086.03
2022-07-27T13:35:24.014Z,102096.47
2022-07-27T13:40:25.884Z,102094.06
2022-07-27T13:45:28.250Z,102085.94
2022-07-27T13:50:46.697Z,102096.63
2022-07-27T13:55:54.279Z,102089.91
2022-07-27T14:00:58.278Z,102099.66
2022-07-27T14:06:10.449Z,102092.63
2022-07-27T14:11:16.610Z,102099.66
2022-07-27T14:16:21.657Z,102099.22
2022-07-27T14:21:23.511Z,102106.16
2022-07-27T14:26:25.435Z,102096.09
2022-07-27T14:31:34.995Z,102089.84
2022-07-27T14:36:39.546Z,102104.16
2022-07-27T14:41:46.802Z,102105.13
2022-07-27T14:46:51.702Z,102094.41
2022-07-27T14:51:58.407Z,102079.34
2022-07-27T14:57:02.537Z,102086.84
2022-07-27T15:02:07.108Z,102079.44
2022-07-27T15:07:08.856Z,102078.06
2022-07-27T15:12:13.525Z,102061.88
2022-07-27T15:17:15.397Z,102067.63
2022-07-27T15:22:24.375Z,102067.88
2022-07-27T15:27:28.090Z,102062.25
2022-07-27T15:32:31.138Z,102068.13
2022-07-27T15:37:34.540Z,102070.31
2022-07-27T15:42:38.677Z,102059.09
2022-07-27T15:47:41.016Z,102070.72
2022-07-27T15:52:42.751Z,102058.28
2022-07-27T15:57:44.487Z,102068.63
2022-07-27T16:02:49.846Z,102077.03
2022-07-27T16:07:52.370Z,102094.06
2022-07-27T16:12:57.139Z,102100.25
2022-07-27T16:18:01.732Z,102102.13
2022-07-27T16:23:18.858Z,102103.59
2022-07-27T16:28:28.402Z,102086.94
2022-07-27T16:33:37.381Z,102096.41
2022-07-27T16:38:49.974Z,102093.97
2022-07-27T16:43:52.925Z,102097.53
2022-07-27T16:48:58.675Z,102091.41
2022-07-27T16:54:03.267Z,102084.88
2022-07-27T16:59:07.359Z,102102.44
2022-07-27T17:04:11.967Z,102097.75
2022-07-27T17:09:17.309Z,102093.00
2022-07-27T17:14:24.127Z,102086.88
2022-07-27T17:19:28.449Z,102080.78
2022-07-27T17:24:37.918Z,102069.59
2022-07-27T17:29:43.357Z,102077.47
2022-07-27T17:34:49.568Z,102063.25
2022-07-27T17:39:53.873Z,102055.66
2022-07-27T17:44:55.877Z,102063.44
2022-07-27T17:49:59.133Z,102066.84
2022-07-27T17:55:01.232Z,102077.13
2022-07-27T18:00:09.739Z,102081.50
2022-07-27T18:05:11.802Z,102064.00
2022-07-27T18:10:19.818Z,102072.34
2022-07-27T18:15:40.338Z,102067.13
2022-07-27T18:20:43.151Z,102072.38
2022-07-27T18:25:49.615Z,102061.72
2022-07-27T18:30:52.416Z,102077.31
2022-07-27T18:35:59.104Z,102078.97
2022-07-27T18:41:03.131Z,102073.50
2022-07-27T18:46:09.844Z,102080.16
2022-07-27T18:51:11.855Z,102088.28
2022-07-27T18:56:16.011Z,102105.34
2022-07-27T19:01:22.367Z,102095.91
2022-07-27T19:06:24.556Z,102097.13
2022-07-27T19:11:31.037Z,102108.31
2022-07-27T19:16:34.308Z,102102.06
2022-07-27T19:21:36.126Z,102097.84
2022-07-27T19:26:37.921Z,102110.75
2022-07-27T19:31:43.040Z,102109.47
2022-07-27T19:36:45.047Z,102117.38
2022-07-27T19:41:46.819Z,102116.88
2022-07-27T19:46:53.375Z,102128.09
2022-07-27T19:51:55.131Z,102129.34
2022-07-27T19:56:56.885Z,102134.25
2022-07-27T20:02:04.100Z,102130.47
2022-07-27T20:07:10.060Z,102129.53
2022-07-27T20:12:11.814Z,102129.19
2022-07-27T20:17:13.713Z,102135.22
2022-07-27T20:22:18.484Z,102134.97
2022-07-27T20:27:22.621Z,102144.56
2022-07-27T20:32:24.493Z,102146.38
2022-07-27T20:37:30.052Z,102146.38
2022-07-27T20:42:37.608Z,102144.44
2022-07-27T20:47:42.721Z,102158.88
2022-07-27T20:52:47.042Z,102151.09
2022-07-27T20:57:48.964Z,102150.63
2022-07-27T21:02:50.973Z,102151.75
2022-07-27T21:07:56.477Z,102150.69
2022-07-27T21:12:58.623Z,102149.47
2022-07-27T21:18:02.954Z,102148.03
2022-07-27T21:23:23.286Z,102137.03
2022-07-27T21:28:25.318Z,102144.22
2022-07-27T21:33:27.120Z,102143.22
2022-07-27T21:38:29.979Z,102149.31
2022-07-27T21:43:33.548Z,102149.25
2022-07-27T21:48:35.887Z,102149.44
2022-07-27T21:53:37.788Z,102151.03
2022-07-27T21:58:40.214Z,102145.38
2022-07-27T22:03:46.630Z,102138.81
2022-07-27T22:08:48.781Z,102145.44
2022-07-27T22:13:53.834Z,102142.81
2022-07-27T22:18:56.778Z,102143.69
2022-07-27T22:24:02.721Z,102144.38
2022-07-27T22:29:06.935Z,102143.91
2022-07-27T22:34:12.055Z,102140.72
2022-07-27T22:39:19.800Z,102143.06
2022-07-27T22:44:23.902Z,102128.13
2022-07-27T22:49:25.765Z,102130.13
2022-07-27T22:54:27.795Z,102132.34
2022-07-27T22:59:34.518Z,102135.19
2022-07-27T23:04:41.003Z,102143.06
2022-07-27T23:09:43.535Z,102147.88
2022-07-27T23:14:49.120Z,102148.38
2022-07-27T23:19:54.345Z,102136.44
2022-07-27T23:25:03.694Z,102143.00
2022-07-27T23:30:09.580Z,102135.09
2022-07-27T23:35:11.590Z,102132.72
2022-07-27T23:40:13.344Z,102137.75
2022-07-27T23:45:22.045Z,102142.44
2022-07-27T23:50:26.391Z,102129.19
2022-07-27T23:55:30.212Z,102133.84
